createdAt,value
2022-12-25T00:01:23.663Z,22.25
2022-12-25T00:03:51.502Z,12.43
2022-12-25T00:06:18.972Z,14.80
2022-12-25T00:08:46.078Z,11.68
2022-12-25T00:11:16.058Z,13.90
2022-12-25T00:13:43.383Z,12.70
2022-12-25T00:16:15.133Z,10.48
2022-12-25T00:18:43.783Z,7.85
2022-12-25T00:21:11.421Z,9.70
2022-12-25T00:23:38.550Z,11.95
2022-12-25T00:26:07.657Z,9.50
2022-12-25T00:28:36.130Z,10.20
2022-12-25T00:31:08.482Z,14.90
2022-12-25T00:33:37.250Z,8.02
2022-12-25T00:36:06.378Z,12.23
2022-12-25T00:38:35.451Z,11.55
2022-12-25T00:41:11.610Z,14.10
2022-12-25T00:43:39.701Z,10.93
2022-12-25T00:46:07.699Z,10.77
2022-12-25T00:48:35.778Z,10.77
2022-12-25T00:51:05.803Z,11.20
2022-12-25T00:53:33.349Z,11.50
2022-12-25T00:56:05.281Z,11.70
2022-12-25T00:58:33.897Z,6.57
2022-12-25T01:01:01.229Z,10.95
2022-12-25T01:03:28.427Z,10.60
2022-12-25T01:06:00.914Z,12.85
2022-12-25T01:08:30.045Z,8.18
2022-12-25T01:10:59.343Z,10.07
2022-12-25T01:13:27.910Z,14.60
2022-12-25T01:15:55.099Z,11.73
2022-12-25T01:18:23.570Z,15.48
2022-12-25T01:20:50.851Z,14.80
2022-12-25T01:23:18.009Z,13.57
2022-12-25T01:25:45.969Z,12.27
2022-12-25T01:28:13.421Z,14.85
2022-12-25T01:30:40.636Z,8.60
2022-12-25T01:33:08.106Z,15.32
2022-12-25T01:35:35.260Z,20.12
2022-12-25T01:38:02.398Z,22.65
2022-12-25T01:40:29.825Z,14.10
2022-12-25T01:42:58.276Z,12.98
2022-12-25T01:45:41.010Z,12.05
2022-12-25T01:48:13.491Z,7.22
2022-12-25T01:50:44.667Z,7.40
2022-12-25T01:53:12.229Z,8.18
2022-12-25T01:55:40.315Z,9.27
2022-12-25T01:58:07.566Z,7.85
2022-12-25T02:00:35.035Z,6.07
2022-12-25T02:03:02.497Z,7.82
2022-12-25T02:05:32.196Z,8.02
2022-12-25T02:08:02.483Z,8.93
2022-12-25T02:10:30.061Z,6.95
2022-12-25T02:12:57.264Z,8.52
2022-12-25T02:15:30.177Z,8.85
2022-12-25T02:18:22.356Z,5.80
2022-12-25T02:21:08.376Z,5.68
2022-12-25T02:23:45.367Z,6.03
2022-12-25T02:26:24.548Z,6.03
2022-12-25T02:29:17.396Z,6.78
2022-12-25T02:31:48.737Z,7.18
2022-12-25T02:34:22.044Z,5.68
2022-12-25T02:36:58.149Z,11.00
2022-12-25T02:39:46.701Z,7.03
2022-12-25T02:42:19.597Z,7.70
2022-12-25T02:45:08.249Z,7.20
2022-12-25T02:47:54.952Z,7.93
2022-12-25T02:50:41.717Z,8.15
2022-12-25T02:53:27.939Z,8.55
2022-12-25T02:56:14.646Z,7.75
2022-12-25T02:59:01.426Z,11.30
2022-12-25T03:01:48.546Z,12.40
2022-12-25T03:04:37.552Z,12.30
2022-12-25T03:07:15.445Z,9.00
2022-12-25T03:10:06.374Z,9.75
2022-12-25T03:12:56.786Z,11.90
2022-12-25T03:15:42.516Z,7.18
2022-12-25T03:18:15.491Z,7.80
2022-12-25T03:21:01.363Z,13.20
2022-12-25T03:23:50.311Z,11.10
2022-12-25T03:26:36.715Z,6.85
2022-12-25T03:29:04.176Z,6.15
2022-12-25T03:31:37.049Z,9.48
2022-12-25T03:34:48.095Z,8.90
2022-12-25T03:37:30.035Z,10.48
2022-12-25T03:40:26.747Z,6.95
2022-12-25T03:43:17.142Z,9.55
2022-12-25T03:46:08.700Z,10.45
2022-12-25T03:48:59.602Z,9.40
2022-12-25T03:51:49.786Z,8.95
2022-12-25T03:54:38.220Z,6.47
2022-12-25T03:57:24.675Z,7.65
2022-12-25T04:00:10.576Z,10.15
2022-12-25T04:02:56.876Z,8.55
2022-12-25T04:05:42.765Z,8.13
2022-12-25T04:08:28.783Z,8.73
2022-12-25T04:11:14.282Z,10.40
2022-12-25T04:14:00.282Z,10.55
2022-12-25T04:16:45.728Z,6.68
2022-12-25T04:19:31.656Z,10.68
2022-12-25T04:22:17.090Z,5.47
2022-12-25T04:25:03.016Z,15.02
2022-12-25T04:27:49.536Z,7.57
2022-12-25T04:30:35.572Z,8.02
2022-12-25T04:33:21.244Z,12.80
2022-12-25T04:36:07.749Z,7.97
2022-12-25T04:38:35.429Z,10.48
2022-12-25T04:41:03.092Z,10.88
2022-12-25T04:43:30.470Z,7.93
2022-12-25T04:45:59.584Z,7.10
2022-12-25T04:48:27.733Z,7.07
2022-12-25T04:50:55.116Z,5.20
2022-12-25T04:53:22.687Z,9.80
2022-12-25T04:55:50.158Z,9.02
2022-12-25T04:58:17.303Z,6.57
2022-12-25T05:00:44.432Z,6.68
2022-12-25T05:03:11.983Z,7.95
2022-12-25T05:05:40.623Z,6.65
2022-12-25T05:08:07.864Z,9.45
2022-12-25T05:10:35.323Z,9.15
2022-12-25T05:13:02.441Z,9.82
2022-12-25T05:15:29.527Z,5.37
2022-12-25T05:17:56.981Z,9.75
2022-12-25T05:20:24.238Z,7.22
2022-12-25T05:22:51.308Z,14.55
2022-12-25T05:25:18.641Z,10.93
2022-12-25T05:27:50.311Z,6.60
2022-12-25T05:30:21.300Z,12.48
2022-12-25T05:32:48.684Z,9.27
2022-12-25T05:35:15.891Z,8.95
2022-12-25T05:37:43.330Z,12.60
2022-12-25T05:40:11.006Z,9.93
2022-12-25T05:42:38.142Z,12.57
2022-12-25T05:45:06.157Z,13.23
2022-12-25T05:47:33.306Z,12.35
2022-12-25T05:50:00.421Z,9.02
2022-12-25T05:52:32.028Z,8.98
2022-12-25T05:54:59.931Z,14.38
2022-12-25T05:57:31.536Z,10.38
2022-12-25T05:59:59.066Z,28.00
2022-12-25T06:02:26.567Z,14.23
2022-12-25T06:04:54.105Z,12.10
2022-12-25T06:07:21.356Z,10.77
2022-12-25T06:09:48.678Z,9.68
2022-12-25T06:12:16.163Z,10.23
2022-12-25T06:14:43.314Z,13.20
2022-12-25T06:17:10.594Z,7.97
2022-12-25T06:19:38.159Z,16.62
2022-12-25T06:22:05.312Z,20.33
2022-12-25T06:24:32.565Z,29.70
2022-12-25T06:27:00.031Z,59.65
2022-12-25T06:29:27.142Z,26.85
2022-12-25T06:31:57.282Z,13.05
2022-12-25T06:34:24.920Z,10.52
2022-12-25T06:36:52.088Z,10.57
2022-12-25T06:39:19.472Z,18.75
2022-12-25T06:41:47.695Z,23.33
2022-12-25T06:44:14.764Z,30.40
2022-12-25T06:46:41.956Z,15.02
2022-12-25T06:49:10.083Z,21.20
2022-12-25T06:51:37.259Z,16.30
2022-12-25T06:54:04.678Z,18.48
2022-12-25T06:56:32.850Z,13.18
2022-12-25T06:59:10.081Z,15.82
2022-12-25T07:01:56.892Z,15.20
2022-12-25T07:04:35.631Z,12.50
2022-12-25T07:07:08.431Z,14.82
2022-12-25T07:09:36.386Z,11.63
2022-12-25T07:12:24.298Z,16.52
2022-12-25T07:14:54.112Z,33.00
2022-12-25T07:17:22.295Z,20.25
2022-12-25T07:19:49.423Z,27.02
2022-12-25T07:22:17.020Z,41.53
2022-12-25T07:24:44.408Z,40.53
2022-12-25T07:27:11.508Z,65.95
2022-12-25T07:29:38.631Z,46.55
2022-12-25T07:32:06.159Z,27.50
2022-12-25T07:34:33.417Z,33.28
2022-12-25T07:37:00.507Z,26.65
2022-12-25T07:39:27.993Z,36.47
2022-12-25T07:41:55.123Z,33.83
2022-12-25T07:44:22.233Z,48.45
2022-12-25T07:46:49.566Z,63.30
2022-12-25T07:49:16.628Z,93.28
2022-12-25T07:51:43.712Z,254.63
2022-12-25T07:54:11.071Z,88.37
2022-12-25T07:56:38.200Z,51.90
2022-12-25T07:59:05.263Z,57.42
2022-12-25T08:01:32.763Z,28.23
2022-12-25T08:04:01.865Z,33.85
2022-12-25T08:06:34.564Z,27.15
2022-12-25T08:09:07.627Z,30.12
2022-12-25T08:11:34.855Z,23.30
2022-12-25T08:14:02.337Z,18.90
2022-12-25T08:16:29.464Z,12.40
2022-12-25T08:18:56.533Z,18.45
2022-12-25T08:21:23.922Z,19.77
2022-12-25T08:23:51.086Z,22.30
2022-12-25T08:26:23.709Z,14.50
2022-12-25T08:28:51.380Z,18.27
2022-12-25T08:31:26.350Z,22.73
2022-12-25T08:33:55.543Z,19.12
2022-12-25T08:36:23.015Z,13.45
2022-12-25T08:38:50.284Z,14.95
2022-12-25T08:41:18.118Z,17.05
2022-12-25T08:43:46.775Z,21.25
2022-12-25T08:46:14.212Z,19.40
2022-12-25T08:48:43.591Z,22.20
2022-12-25T08:51:17.128Z,19.02
2022-12-25T08:53:45.703Z,26.83
2022-12-25T08:56:13.360Z,25.12
2022-12-25T08:58:40.729Z,24.70
2022-12-25T09:01:08.261Z,29.65
2022-12-25T09:03:35.708Z,27.87
2022-12-25T09:06:04.716Z,21.27
2022-12-25T09:08:32.389Z,12.52
2022-12-25T09:11:04.326Z,15.40
2022-12-25T09:13:31.678Z,13.10
2022-12-25T09:15:58.854Z,19.40
2022-12-25T09:18:26.351Z,17.10
2022-12-25T09:21:01.185Z,12.10
2022-12-25T09:23:28.734Z,7.97
2022-12-25T09:25:59.084Z,9.82
2022-12-25T09:28:26.256Z,14.55
2022-12-25T09:30:53.690Z,17.60
2022-12-25T09:33:21.814Z,17.08
2022-12-25T09:35:56.599Z,16.73
2022-12-25T09:38:24.574Z,12.45
2022-12-25T09:41:21.092Z,24.60
2022-12-25T09:43:56.568Z,18.05
2022-12-25T09:46:30.196Z,15.23
2022-12-25T09:49:13.199Z,14.25
2022-12-25T09:51:41.118Z,11.70
2022-12-25T09:54:19.984Z,11.55
2022-12-25T09:56:48.192Z,12.52
2022-12-25T09:59:25.499Z,8.30
2022-12-25T10:02:07.831Z,14.32
2022-12-25T10:05:09.770Z,13.45
2022-12-25T10:08:02.541Z,13.07
2022-12-25T10:10:35.676Z,9.38
2022-12-25T10:13:07.800Z,13.65
2022-12-25T10:15:48.030Z,11.95
2022-12-25T10:18:31.184Z,11.70
2022-12-25T10:21:00.943Z,10.05
2022-12-25T10:23:33.078Z,12.82
2022-12-25T10:26:00.739Z,11.38
2022-12-25T10:28:38.856Z,9.55
2022-12-25T10:31:21.122Z,10.73
2022-12-25T10:33:52.867Z,10.45
2022-12-25T10:36:30.621Z,13.25
2022-12-25T10:38:58.039Z,8.75
2022-12-25T10:41:35.560Z,9.23
2022-12-25T10:44:21.753Z,9.20
2022-12-25T10:46:54.712Z,12.80
2022-12-25T10:49:24.122Z,9.82
2022-12-25T10:51:52.121Z,10.10
2022-12-25T10:54:35.174Z,11.85
2022-12-25T10:57:04.108Z,9.10
2022-12-25T10:59:41.948Z,11.20
2022-12-25T11:02:24.166Z,10.13
2022-12-25T11:04:58.140Z,8.32
2022-12-25T11:09:59.299Z,21.58
2022-12-25T11:12:36.688Z,8.98
2022-12-25T11:15:26.359Z,10.93
2022-12-25T11:17:53.792Z,8.23
2022-12-25T11:20:21.768Z,11.20
2022-12-25T11:22:50.095Z,9.75
2022-12-25T11:25:26.231Z,7.93
2022-12-25T11:28:01.587Z,10.70
2022-12-25T11:30:30.280Z,16.40
2022-12-25T11:33:10.878Z,9.55
2022-12-25T11:35:52.898Z,8.57
2022-12-25T11:38:20.064Z,10.18
2022-12-25T11:40:52.721Z,8.60
2022-12-25T11:43:42.180Z,12.63
2022-12-25T11:46:32.943Z,12.35
2022-12-25T11:49:01.770Z,11.82
2022-12-25T11:51:33.764Z,10.23
2022-12-25T11:54:07.981Z,9.07
2022-12-25T11:56:36.985Z,7.78
2022-12-25T11:59:18.775Z,7.97
2022-12-25T12:01:52.005Z,6.15
2022-12-25T12:04:30.867Z,6.03
2022-12-25T12:07:05.315Z,9.20
2022-12-25T12:09:56.694Z,9.68
2022-12-25T12:12:38.195Z,5.85
2022-12-25T12:15:40.121Z,9.23
2022-12-25T12:18:22.117Z,6.40
2022-12-25T12:21:09.973Z,7.35
2022-12-25T12:24:06.573Z,12.02
2022-12-25T12:26:38.007Z,11.27
2022-12-25T12:29:07.903Z,10.48
2022-12-25T12:31:41.785Z,9.13
2022-12-25T12:34:27.869Z,9.35
2022-12-25T12:37:19.997Z,12.05
2022-12-25T12:39:54.370Z,15.10
2022-12-25T12:42:30.752Z,14.00
2022-12-25T12:45:09.819Z,20.58
2022-12-25T12:47:48.266Z,20.80
2022-12-25T12:50:30.638Z,15.98
2022-12-25T12:52:58.561Z,22.02
2022-12-25T12:55:34.140Z,20.90
2022-12-25T12:58:06.065Z,18.33
2022-12-25T13:00:40.134Z,20.35
2022-12-25T13:03:10.204Z,14.87
2022-12-25T13:05:46.087Z,17.75
2022-12-25T13:08:25.683Z,24.02
2022-12-25T13:11:24.365Z,20.08
2022-12-25T13:13:54.246Z,17.52
2022-12-25T13:16:24.446Z,15.85
2022-12-25T13:18:52.937Z,18.87
2022-12-25T13:21:28.481Z,17.50
2022-12-25T13:24:04.829Z,15.10
2022-12-25T13:26:32.013Z,16.42
2022-12-25T13:28:59.538Z,16.08
2022-12-25T13:31:28.734Z,15.65
2022-12-25T13:34:03.161Z,23.70
2022-12-25T13:36:35.866Z,20.25
2022-12-25T13:39:03.784Z,17.98
2022-12-25T13:41:55.423Z,23.40
2022-12-25T13:44:25.189Z,22.62
2022-12-25T13:46:52.884Z,36.72
2022-12-25T13:49:22.481Z,33.83
2022-12-25T13:51:50.425Z,35.78
2022-12-25T13:54:18.699Z,18.67
2022-12-25T13:56:51.126Z,22.80
2022-12-25T13:59:21.334Z,19.42
2022-12-25T14:01:49.903Z,15.52
2022-12-25T14:04:20.453Z,21.40
2022-12-25T14:06:51.673Z,15.15
2022-12-25T14:09:19.558Z,11.38
2022-12-25T14:11:50.519Z,11.55
2022-12-25T14:14:21.551Z,17.05
2022-12-25T14:16:50.356Z,17.45
2022-12-25T14:19:30.617Z,13.00
2022-12-25T14:21:58.055Z,19.50
2022-12-25T14:24:27.286Z,17.87
2022-12-25T14:27:00.348Z,18.67
2022-12-25T14:29:32.697Z,26.75
2022-12-25T14:32:04.056Z,27.08
2022-12-25T14:34:32.389Z,23.20
2022-12-25T14:37:00.686Z,29.15
2022-12-25T14:39:35.296Z,32.40
2022-12-25T14:42:22.258Z,28.85
2022-12-25T14:45:20.834Z,19.77
2022-12-25T14:47:56.309Z,23.75
2022-12-25T14:50:30.620Z,23.00
2022-12-25T14:52:59.083Z,23.67
2022-12-25T14:55:28.428Z,25.20
2022-12-25T14:58:06.242Z,18.83
2022-12-25T15:00:38.207Z,36.75
2022-12-25T15:03:18.640Z,103.75
2022-12-25T15:05:46.104Z,24.50
2022-12-25T15:08:23.268Z,55.83
2022-12-25T15:11:00.999Z,47.42
2022-12-25T15:13:30.320Z,30.75
2022-12-25T15:16:12.309Z,47.92
2022-12-25T15:18:44.239Z,39.40
2022-12-25T15:21:23.468Z,21.77
2022-12-25T15:23:50.642Z,27.15
2022-12-25T15:26:18.099Z,42.05
2022-12-25T15:28:45.303Z,53.78
2022-12-25T15:31:22.049Z,40.72
2022-12-25T15:33:55.611Z,28.17
2022-12-25T15:36:23.543Z,38.53
2022-12-25T15:38:51.671Z,36.80
2022-12-25T15:41:48.800Z,40.67
2022-12-25T15:44:16.791Z,26.23
2022-12-25T15:46:46.983Z,27.85
2022-12-25T15:49:15.150Z,47.08
2022-12-25T15:51:43.440Z,62.13
2022-12-25T15:54:11.055Z,57.53
2022-12-25T15:56:50.607Z,75.20
2022-12-25T15:59:19.540Z,112.03
2022-12-25T16:01:49.301Z,110.12
2022-12-25T16:04:16.980Z,110.03
2022-12-25T16:06:44.160Z,117.55
2022-12-25T16:09:11.892Z,123.50
2022-12-25T16:11:39.515Z,101.28
2022-12-25T16:14:07.084Z,66.90
2022-12-25T16:16:34.348Z,68.35
2022-12-25T16:19:01.971Z,75.97
2022-12-25T16:21:34.527Z,77.32
2022-12-25T16:24:01.976Z,75.65
2022-12-25T16:26:30.624Z,80.90
2022-12-25T16:29:01.166Z,76.45
2022-12-25T16:31:31.464Z,62.38
2022-12-25T16:33:58.828Z,57.80
2022-12-25T16:36:27.193Z,76.53
2022-12-25T16:38:54.802Z,110.72
2022-12-25T16:41:22.045Z,113.00
2022-12-25T16:43:51.840Z,47.05
2022-12-25T16:46:22.283Z,81.55
2022-12-25T16:48:49.556Z,73.37
2022-12-25T16:51:19.199Z,65.82
2022-12-25T16:53:47.196Z,100.93
2022-12-25T16:56:20.440Z,98.37
2022-12-25T16:58:48.180Z,54.22
2022-12-25T17:01:17.570Z,71.68
2022-12-25T17:03:45.457Z,57.83
2022-12-25T17:06:24.300Z,68.12
2022-12-25T17:08:53.058Z,65.90
2022-12-25T17:11:24.374Z,57.22
2022-12-25T17:13:51.658Z,46.45
2022-12-25T17:16:21.204Z,45.58
2022-12-25T17:18:49.637Z,55.55
2022-12-25T17:21:16.793Z,52.03
2022-12-25T17:23:45.092Z,44.25
2022-12-25T17:26:12.614Z,43.87
2022-12-25T17:28:39.796Z,38.60
2022-12-25T17:31:08.950Z,48.40
2022-12-25T17:33:37.879Z,46.90
2022-12-25T17:36:16.176Z,47.30
2022-12-25T17:38:44.540Z,46.58
2022-12-25T17:41:13.219Z,46.63
2022-12-25T17:43:42.091Z,53.83
2022-12-25T17:46:13.173Z,46.33
2022-12-25T17:48:43.389Z,54.73
2022-12-25T17:51:13.527Z,50.85
2022-12-25T17:53:42.839Z,61.13
2022-12-25T17:56:10.542Z,76.30
2022-12-25T17:58:38.351Z,50.42
2022-12-25T18:01:10.863Z,53.40
2022-12-25T18:03:38.707Z,52.95
2022-12-25T18:06:07.586Z,52.85
2022-12-25T18:08:39.272Z,55.65
2022-12-25T18:11:17.965Z,47.00
2022-12-25T18:13:48.414Z,43.08
2022-12-25T18:16:17.203Z,43.85
2022-12-25T18:18:51.508Z,49.15
2022-12-25T18:21:21.422Z,51.47
2022-12-25T18:23:48.886Z,48.42
2022-12-25T18:26:16.208Z,39.53
2022-12-25T18:28:44.022Z,42.28
2022-12-25T18:31:13.977Z,39.80
2022-12-25T18:33:41.757Z,37.97
2022-12-25T18:36:11.376Z,47.47
2022-12-25T18:38:41.696Z,47.28
2022-12-25T18:41:10.446Z,42.70
2022-12-25T18:43:54.413Z,40.33
2022-12-25T18:46:27.367Z,47.85
2022-12-25T18:48:56.015Z,55.05
2022-12-25T18:51:23.569Z,51.70
2022-12-25T18:53:51.288Z,35.40
2022-12-25T18:56:20.098Z,40.17
2022-12-25T18:58:48.070Z,39.20
2022-12-25T19:01:20.892Z,41.97
2022-12-25T19:03:49.370Z,49.80
2022-12-25T19:06:23.958Z,56.78
2022-12-25T19:11:19.353Z,54.97
2022-12-25T19:13:46.584Z,51.00
2022-12-25T19:16:14.352Z,47.58
2022-12-25T19:18:44.438Z,58.55
2022-12-25T19:21:11.815Z,49.60
2022-12-25T19:23:39.352Z,45.60
2022-12-25T19:26:08.181Z,50.78
2022-12-25T19:28:36.200Z,58.55
2022-12-25T19:31:07.428Z,59.83
2022-12-25T19:33:35.908Z,59.22
2022-12-25T19:36:06.249Z,51.80
2022-12-25T19:38:33.430Z,50.42
2022-12-25T19:41:09.615Z,46.25
2022-12-25T19:43:38.946Z,44.03
2022-12-25T19:46:07.724Z,50.38
2022-12-25T19:48:35.030Z,42.58
2022-12-25T19:51:02.549Z,49.50
2022-12-25T19:53:30.076Z,53.55
2022-12-25T19:56:01.347Z,58.22
2022-12-25T19:58:29.736Z,51.28
2022-12-25T20:01:02.027Z,52.92
2022-12-25T20:03:29.570Z,47.00
2022-12-25T20:05:57.254Z,48.83
2022-12-25T20:08:24.857Z,48.42
2022-12-25T20:10:52.524Z,55.83
2022-12-25T20:13:20.193Z,50.92
2022-12-25T20:15:47.505Z,46.35
2022-12-25T20:18:17.832Z,30.02
2022-12-25T20:20:45.113Z,36.35
2022-12-25T20:23:12.297Z,35.20
2022-12-25T20:25:41.436Z,37.17
2022-12-25T20:28:09.303Z,50.33
2022-12-25T20:30:40.010Z,42.40
2022-12-25T20:33:07.555Z,41.92
2022-12-25T20:35:34.752Z,39.08
2022-12-25T20:38:02.026Z,40.63
2022-12-25T20:40:29.492Z,39.47
2022-12-25T20:42:56.752Z,35.40
2022-12-25T20:45:23.916Z,36.83
2022-12-25T20:47:51.392Z,35.00
2022-12-25T20:50:18.559Z,38.50
2022-12-25T20:52:45.720Z,34.10
2022-12-25T20:55:14.191Z,44.08
2022-12-25T20:57:41.355Z,31.50
2022-12-25T21:00:09.076Z,34.75
2022-12-25T21:02:37.960Z,31.67
2022-12-25T21:05:07.099Z,32.85
2022-12-25T21:07:34.281Z,24.20
2022-12-25T21:10:01.782Z,30.83
2022-12-25T21:12:28.932Z,33.55
2022-12-25T21:14:56.152Z,35.72
2022-12-25T21:17:23.639Z,36.30
2022-12-25T21:19:50.808Z,38.30
2022-12-25T21:22:17.988Z,34.85
2022-12-25T21:24:45.434Z,31.60
2022-12-25T21:27:12.575Z,22.62
2022-12-25T21:29:39.730Z,34.40
2022-12-25T21:32:25.774Z,35.67
2022-12-25T21:34:52.933Z,35.25
2022-12-25T21:37:20.472Z,29.80
2022-12-25T21:39:50.739Z,30.73
2022-12-25T21:42:17.874Z,26.08
2022-12-25T21:44:45.784Z,29.23
2022-12-25T21:47:12.962Z,30.37
2022-12-25T21:49:58.781Z,31.05
2022-12-25T21:52:26.229Z,28.05
2022-12-25T21:54:53.402Z,21.42
2022-12-25T21:57:20.587Z,28.55
2022-12-25T21:59:48.211Z,28.52
2022-12-25T22:02:15.379Z,23.60
2022-12-25T22:04:43.028Z,31.15
2022-12-25T22:07:18.846Z,22.50
2022-12-25T22:09:50.558Z,23.52
2022-12-25T22:12:37.772Z,24.65
2022-12-25T22:15:07.279Z,23.58
2022-12-25T22:17:55.104Z,22.50
2022-12-25T22:20:30.118Z,22.45
2022-12-25T22:22:58.152Z,21.50
2022-12-25T22:25:26.050Z,19.90
2022-12-25T22:27:53.611Z,27.17
2022-12-25T22:30:26.083Z,25.73
2022-12-25T22:32:53.837Z,21.90
2022-12-25T22:35:22.952Z,19.08
2022-12-25T22:37:50.234Z,20.35
2022-12-25T22:40:19.039Z,15.75
2022-12-25T22:42:46.292Z,20.27
2022-12-25T22:45:13.579Z,21.25
2022-12-25T22:47:41.577Z,18.60
2022-12-25T22:50:09.976Z,16.92
2022-12-25T22:52:37.523Z,17.40
2022-12-25T22:55:06.332Z,17.12
2022-12-25T22:57:33.517Z,19.25
2022-12-25T23:00:00.584Z,16.85
2022-12-25T23:02:28.279Z,16.15
2022-12-25T23:04:55.536Z,16.92
2022-12-25T23:07:22.628Z,17.05
2022-12-25T23:09:50.023Z,16.23
2022-12-25T23:12:35.972Z,14.20
2022-12-25T23:15:03.596Z,16.85
2022-12-25T23:17:49.137Z,16.77
2022-12-25T23:20:35.043Z,17.12
2022-12-25T23:23:21.055Z,20.85
2022-12-25T23:26:07.273Z,15.38
2022-12-25T23:28:57.801Z,17.62
2022-12-25T23:31:28.446Z,16.27
2022-12-25T23:33:55.547Z,18.27
2022-12-25T23:36:22.723Z,15.80
2022-12-25T23:38:50.308Z,14.55
2022-12-25T23:41:17.452Z,17.20
2022-12-25T23:43:44.524Z,18.35
2022-12-25T23:46:11.934Z,19.42
2022-12-25T23:48:39.091Z,17.17
2022-12-25T23:51:07.083Z,17.25
2022-12-25T23:53:34.779Z,14.98
2022-12-25T23:56:01.976Z,11.93
2022-12-25T23:58:29.554Z,14.38
